Time;durP1;ratioP1;P1;durP2;ratioP2;P2;SDS_P1;SDS_P2;PMS_P1;PMS_P2;Temp;Humidity;BMP_temperature;BMP_pressure;BME280_temperature;BME280_humidity;BME280_pressure;Samples;Min_cycle;Max_cycle;Signal;HPM_P1;HPM_P2
2022/04/15 00:02:20;;;;;;;;;;;18.70;58.10;;;;;;5075351;28;1694;-68
2022/04/15 00:04:46;;;;;;;;;;;18.60;58.10;;;;;;5075310;28;1367;-69
2022/04/15 00:07:11;;;;;;;;;;;18.60;58.10;;;;;;5074950;28;1660;-69
2022/04/15 00:09:37;;;;;;;;;;;18.60;58.10;;;;;;5074920;28;1392;-69
2022/04/15 00:12:07;;;;;;;;;;;18.70;58.20;;;;;;5074812;28;1965;-70
2022/04/15 00:14:33;;;;;;;;;;;18.60;58.20;;;;;;5075244;28;1677;-70
2022/04/15 00:16:58;;;;;;;;;;;18.60;58.20;;;;;;5056915;28;1390;-70
2022/04/15 00:19:23;;;;;;;;;;;18.60;58.20;;;;;;5074923;28;1646;-69
2022/04/15 00:21:50;;;;;;;;;;;18.60;58.20;;;;;;5057322;28;1727;-70
2022/04/15 00:24:16;;;;;;;;;;;18.60;58.20;;;;;;5074785;28;1453;-70
2022/04/15 00:26:41;;;;;;;;;;;18.60;58.20;;;;;;5055915;28;1420;-69
2022/04/15 00:29:07;;;;;;;;;;;18.60;58.20;;;;;;5074078;28;1739;-70
2022/04/15 00:31:32;;;;;;;;;;;18.60;58.20;;;;;;5074630;28;1971;-70
2022/04/15 00:33:58;;;;;;;;;;;18.60;58.30;;;;;;5056718;28;1477;-70
2022/04/15 00:36:23;;;;;;;;;;;18.60;58.30;;;;;;5055390;28;1201;-69
2022/04/15 00:38:49;;;;;;;;;;;18.60;58.30;;;;;;5056578;28;1673;-70
2022/04/15 00:41:15;;;;;;;;;;;18.60;58.30;;;;;;5074440;28;983;-70
2022/04/15 00:43:40;;;;;;;;;;;18.60;58.30;;;;;;5075023;28;1248;-70
2022/04/15 00:46:07;;;;;;;;;;;18.60;58.30;;;;;;5056343;28;1473;-70
2022/04/15 00:48:33;;;;;;;;;;;18.60;58.40;;;;;;5074455;28;1497;-69
2022/04/15 00:50:58;;;;;;;;;;;18.60;58.30;;;;;;5056449;28;1890;-70
2022/04/15 00:53:24;;;;;;;;;;;18.60;58.30;;;;;;5074104;28;1223;-70
2022/04/15 00:55:53;;;;;;;;;;;18.60;58.40;;;;;;5056061;28;1668;-70
2022/04/15 00:58:18;;;;;;;;;;;18.60;58.30;;;;;;5056844;28;1735;-69
2022/04/15 01:00:43;;;;;;;;;;;18.60;58.40;;;;;;5056203;28;1362;-69
2022/04/15 01:03:09;;;;;;;;;;;18.60;58.40;;;;;;5056213;28;1661;-70
2022/04/15 01:05:35;;;;;;;;;;;18.60;58.40;;;;;;5069690;28;2428;-70
2022/04/15 01:08:02;;;;;;;;;;;18.60;58.40;;;;;;5053452;28;1380;-70
2022/04/15 01:10:27;;;;;;;;;;;18.60;58.40;;;;;;5055779;28;1945;-70
2022/04/15 01:12:54;;;;;;;;;;;18.60;58.40;;;;;;5055829;28;1048;-70
2022/04/15 01:15:26;;;;;;;;;;;18.60;58.40;;;;;;5056287;28;1270;-70
2022/04/15 01:17:51;;;;;;;;;;;18.60;58.50;;;;;;5038598;28;1372;-70
2022/04/15 01:20:17;;;;;;;;;;;18.60;58.50;;;;;;5073546;28;1142;-70
2022/04/15 01:22:43;;;;;;;;;;;18.60;58.50;;;;;;5037543;28;1299;-70
2022/04/15 01:25:09;;;;;;;;;;;18.60;58.50;;;;;;5055470;28;1267;-70
2022/04/15 01:27:36;;;;;;;;;;;18.60;58.50;;;;;;5054237;28;1467;-70
2022/04/15 01:30:02;;;;;;;;;;;18.60;58.50;;;;;;5073152;22;3664;-66
2022/04/15 01:32:27;;;;;;;;;;;18.60;58.50;;;;;;5041589;28;1906;-65
2022/04/15 01:34:53;;;;;;;;;;;18.60;58.50;;;;;;5042785;28;1300;-66
2022/04/15 01:37:19;;;;;;;;;;;18.60;58.50;;;;;;5042423;28;1172;-66
2022/04/15 01:39:45;;;;;;;;;;;18.50;58.50;;;;;;5036831;28;1397;-67
2022/04/15 01:42:10;;;;;;;;;;;18.50;58.50;;;;;;5021768;28;1189;-66
2022/04/15 01:44:36;;;;;;;;;;;18.50;59.10;;;;;;5024398;28;1236;-66
2022/04/15 01:47:01;;;;;;;;;;;18.50;58.50;;;;;;5019768;28;1240;-65
2022/04/15 01:49:27;;;;;;;;;;;18.50;58.50;;;;;;5022959;28;1279;-66
2022/04/15 01:51:52;;;;;;;;;;;18.50;58.50;;;;;;5017588;28;1894;-66
2022/04/15 01:54:17;;;;;;;;;;;18.50;58.50;;;;;;5013505;28;1264;-66
2022/04/15 01:56:43;;;;;;;;;;;18.50;58.50;;;;;;4995737;28;1431;-65
2022/04/15 01:59:09;;;;;;;;;;;18.50;58.60;;;;;;5013522;28;1348;-66
2022/04/15 02:01:35;;;;;;;;;;;18.50;58.60;;;;;;5013444;28;1295;-67
2022/04/15 02:04:00;;;;;;;;;;;18.50;58.60;;;;;;5013471;28;1196;-67
2022/04/15 02:06:26;;;;;;;;;;;18.50;59.20;;;;;;5012893;28;1464;-66
2022/04/15 02:08:51;;;;;;;;;;;18.50;58.60;;;;;;5013365;28;1296;-66
2022/04/15 02:11:17;;;;;;;;;;;18.50;58.60;;;;;;5013183;28;1890;-67
2022/04/15 02:13:42;;;;;;;;;;;18.50;58.60;;;;;;5013531;28;1289;-67
2022/04/15 02:16:08;;;;;;;;;;;18.50;58.60;;;;;;5012852;28;1300;-67
2022/04/15 02:18:34;;;;;;;;;;;18.50;58.60;;;;;;4995774;28;1355;-67
2022/04/15 02:20:59;;;;;;;;;;;18.50;58.60;;;;;;5012832;28;1294;-67
2022/04/15 02:23:25;;;;;;;;;;;18.50;58.70;;;;;;5013302;28;1288;-67
2022/04/15 02:25:50;;;;;;;;;;;18.50;58.70;;;;;;5012755;28;1276;-67
2022/04/15 02:28:15;;;;;;;;;;;18.50;58.70;;;;;;5012823;28;1540;-68
2022/04/15 02:30:41;;;;;;;;;;;18.50;58.70;;;;;;5012845;28;1899;-68
2022/04/15 02:33:06;;;;;;;;;;;18.50;58.70;;;;;;5012949;28;883;-68
2022/04/15 02:35:32;;;;;;;;;;;18.50;58.70;;;;;;5012429;28;1603;-66
2022/04/15 02:37:57;;;;;;;;;;;18.50;58.70;;;;;;5012875;28;1377;-66
2022/04/15 02:40:23;;;;;;;;;;;18.50;58.70;;;;;;5012858;28;1355;-66
2022/04/15 02:42:48;;;;;;;;;;;18.50;58.70;;;;;;5013007;28;1342;-66
2022/04/15 02:45:13;;;;;;;;;;;18.50;58.70;;;;;;5012820;28;1074;-66
2022/04/15 02:47:39;;;;;;;;;;;18.50;58.70;;;;;;4995193;28;1340;-66
2022/04/15 02:50:05;;;;;;;;;;;18.40;58.70;;;;;;4995060;28;1426;-66
2022/04/15 02:52:31;;;;;;;;;;;18.50;58.80;;;;;;5012862;28;1899;-66
2022/04/15 02:54:57;;;;;;;;;;;18.50;58.80;;;;;;4976525;28;1477;-66
2022/04/15 02:57:22;;;;;;;;;;;18.50;58.80;;;;;;5012658;28;1276;-66
2022/04/15 02:59:48;;;;;;;;;;;18.50;58.80;;;;;;5013426;28;1308;-66
2022/04/15 03:02:15;;;;;;;;;;;18.50;58.80;;;;;;5016574;28;1261;-66
2022/04/15 03:04:40;;;;;;;;;;;18.50;58.80;;;;;;5016410;28;1310;-66
2022/04/15 03:07:05;;;;;;;;;;;18.50;58.80;;;;;;5016207;28;1287;-65
2022/04/15 03:09:31;;;;;;;;;;;18.50;58.80;;;;;;5016419;28;1411;-67
2022/04/15 03:11:56;;;;;;;;;;;18.50;58.80;;;;;;5016563;28;1894;-66
2022/04/15 03:14:22;;;;;;;;;;;18.50;58.80;;;;;;5016337;28;1263;-67
2022/04/15 03:16:47;;;;;;;;;;;18.50;59.40;;;;;;5016093;28;1292;-66
2022/04/15 03:19:13;;;;;;;;;;;18.50;58.90;;;;;;5016207;28;1373;-67
2022/04/15 03:21:38;;;;;;;;;;;18.50;58.90;;;;;;5016101;28;1423;-66
2022/04/15 03:24:04;;;;;;;;;;;18.50;58.80;;;;;;5016296;28;1135;-66
2022/04/15 03:26:30;;;;;;;;;;;18.50;58.90;;;;;;5015691;28;1500;-67
2022/04/15 03:28:55;;;;;;;;;;;18.50;58.90;;;;;;5015995;28;1360;-67
2022/04/15 03:31:21;;;;;;;;;;;18.50;58.90;;;;;;5015931;28;1910;-67
2022/04/15 03:33:46;;;;;;;;;;;18.50;58.90;;;;;;4998380;28;1374;-67
2022/04/15 03:36:12;;;;;;;;;;;18.50;58.90;;;;;;5030881;28;1307;-68
2022/04/15 03:38:38;;;;;;;;;;;18.50;58.90;;;;;;5014883;28;1315;-67
2022/04/15 03:41:03;;;;;;;;;;;18.50;58.90;;;;;;4998457;28;1356;-67
2022/04/15 03:43:29;;;;;;;;;;;18.50;58.90;;;;;;5016134;28;1266;-67
2022/04/15 03:45:55;;;;;;;;;;;18.50;58.90;;;;;;5015495;28;1131;-67
2022/04/15 03:48:20;;;;;;;;;;;18.40;58.80;;;;;;5015704;28;1281;-67
2022/04/15 03:50:46;;;;;;;;;;;18.50;58.90;;;;;;5015682;28;1965;-67
2022/04/15 03:53:11;;;;;;;;;;;18.40;58.80;;;;;;5015719;28;1337;-67
2022/04/15 03:55:36;;;;;;;;;;;18.40;58.90;;;;;;5015319;28;1328;-67
2022/04/15 03:58:02;;;;;;;;;;;18.40;58.90;;;;;;5015994;28;1546;-66
2022/04/15 04:00:27;;;;;;;;;;;18.40;58.90;;;;;;4978234;28;1389;-67
2022/04/15 04:02:53;;;;;;;;;;;18.40;58.90;;;;;;5007570;28;1349;-66
2022/04/15 04:05:19;;;;;;;;;;;18.40;58.90;;;;;;5015301;28;1108;-66
2022/04/15 04:07:44;;;;;;;;;;;18.40;58.90;;;;;;4998008;28;1337;-67
2022/04/15 04:10:13;;;;;;;;;;;18.40;58.90;;;;;;4997699;28;1368;-65
2022/04/15 04:12:38;;;;;;;;;;;18.40;58.90;;;;;;4998132;28;1989;-66
2022/04/15 04:15:04;;;;;;;;;;;18.40;58.90;;;;;;5015231;28;1383;-65
2022/04/15 04:17:30;;;;;;;;;;;18.40;58.90;;;;;;5014859;28;1351;-66
2022/04/15 04:19:55;;;;;;;;;;;18.40;58.90;;;;;;5015019;28;1373;-66
2022/04/15 04:22:21;;;;;;;;;;;18.40;58.90;;;;;;5015223;28;1309;-66
2022/04/15 04:24:46;;;;;;;;;;;18.40;58.90;;;;;;5015123;28;1380;-66
2022/04/15 04:27:12;;;;;;;;;;;18.40;58.90;;;;;;4997313;28;1189;-66
2022/04/15 04:29:37;;;;;;;;;;;18.40;59.00;;;;;;5014711;28;1490;-67
2022/04/15 04:32:03;;;;;;;;;;;18.40;58.90;;;;;;4997276;28;1961;-67
2022/04/15 04:34:28;;;;;;;;;;;18.40;59.00;;;;;;5014736;28;1313;-67
2022/04/15 04:36:54;;;;;;;;;;;18.40;58.90;;;;;;5014637;28;1265;-67
2022/04/15 04:39:19;;;;;;;;;;;18.40;59.00;;;;;;5014718;28;1343;-67
2022/04/15 04:41:44;;;;;;;;;;;18.40;59.00;;;;;;5014774;28;1045;-66
2022/04/15 04:44:10;;;;;;;;;;;18.40;59.00;;;;;;4997293;28;1117;-66
2022/04/15 04:46:36;;;;;;;;;;;18.40;59.00;;;;;;5014480;28;1288;-66
2022/04/15 04:49:01;;;;;;;;;;;18.40;59.00;;;;;;5014397;28;1350;-66
2022/04/15 04:51:26;;;;;;;;;;;18.40;59.00;;;;;;5014548;28;1946;-66
2022/04/15 04:53:52;;;;;;;;;;;18.40;59.00;;;;;;4997068;28;1432;-66
2022/04/15 04:56:17;;;;;;;;;;;18.40;59.00;;;;;;4996752;28;1326;-67
2022/04/15 04:58:43;;;;;;;;;;;18.40;59.00;;;;;;5014414;28;1357;-66
2022/04/15 05:01:08;;;;;;;;;;;18.40;59.00;;;;;;5014695;28;1288;-67
2022/04/15 05:03:33;;;;;;;;;;;18.40;59.00;;;;;;5014443;28;1339;-67
2022/04/15 05:05:59;;;;;;;;;;;18.40;59.00;;;;;;5014133;28;1250;-67
2022/04/15 05:08:24;;;;;;;;;;;18.40;59.00;;;;;;5014246;28;1272;-67
2022/04/15 05:10:50;;;;;;;;;;;18.40;59.00;;;;;;4996785;28;1894;-67
2022/04/15 05:13:15;;;;;;;;;;;18.40;59.00;;;;;;4996652;28;1380;-67
2022/04/15 05:15:41;;;;;;;;;;;18.40;58.90;;;;;;4996302;28;1425;-67
2022/04/15 05:18:06;;;;;;;;;;;18.50;59.00;;;;;;5013938;28;1359;-67
2022/04/15 05:20:32;;;;;;;;;;;18.40;58.90;;;;;;5014155;28;1342;-66
2022/04/15 05:22:58;;;;;;;;;;;18.50;58.80;;;;;;5013970;28;1376;-67
2022/04/15 05:25:23;;;;;;;;;;;18.50;58.70;;;;;;4996430;28;1360;-67
2022/04/15 05:27:49;;;;;;;;;;;18.50;58.60;;;;;;5013932;28;1425;-67
2022/04/15 05:30:15;;;;;;;;;;;18.60;58.60;;;;;;5013672;28;1382;-68
2022/04/15 05:32:40;;;;;;;;;;;18.60;58.50;;;;;;4996087;28;1907;-66
2022/04/15 05:35:07;;;;;;;;;;;18.60;58.50;;;;;;4996246;28;1650;-66
2022/04/15 05:37:32;;;;;;;;;;;18.60;58.40;;;;;;5013407;28;1287;-67
2022/04/15 05:39:57;;;;;;;;;;;18.60;58.30;;;;;;5013808;28;1293;-67
2022/04/15 05:42:26;;;;;;;;;;;18.70;58.30;;;;;;5013677;28;1215;-67
2022/04/15 05:44:51;;;;;;;;;;;18.70;58.30;;;;;;5013597;28;1438;-67
2022/04/15 05:47:17;;;;;;;;;;;18.70;58.20;;;;;;5013157;28;1283;-67
2022/04/15 05:49:42;;;;;;;;;;;18.70;58.20;;;;;;5013854;28;1296;-67
2022/04/15 05:52:07;;;;;;;;;;;18.70;58.10;;;;;;5013347;28;1894;-67
2022/04/15 05:54:33;;;;;;;;;;;18.70;58.10;;;;;;5013542;28;1375;-67
2022/04/15 05:56:58;;;;;;;;;;;18.70;58.00;;;;;;4995571;28;1395;-67
2022/04/15 05:59:24;;;;;;;;;;;18.80;58.10;;;;;;5013401;28;1309;-67
2022/04/15 06:01:51;;;;;;;;;;;18.80;58.00;;;;;;5013524;28;1314;-66
2022/04/15 06:04:17;;;;;;;;;;;18.80;58.00;;;;;;5013600;28;1241;-66
2022/04/15 06:06:42;;;;;;;;;;;18.80;58.00;;;;;;4995501;28;1298;-66
2022/04/15 06:09:08;;;;;;;;;;;18.80;57.90;;;;;;5013361;28;1338;-66
2022/04/15 06:11:33;;;;;;;;;;;18.80;57.90;;;;;;5013084;28;1890;-66
2022/04/15 06:14:00;;;;;;;;;;;18.80;57.90;;;;;;5013250;28;1247;-66
2022/04/15 06:16:31;;;;;;;;;;;18.80;57.90;;;;;;5012914;28;1309;-66
2022/04/15 06:18:57;;;;;;;;;;;18.80;57.90;;;;;;5013210;28;1370;-66
2022/04/15 06:21:22;;;;;;;;;;;18.90;57.80;;;;;;5009278;28;1941;-68
2022/04/15 06:23:48;;;;;;;;;;;18.90;57.80;;;;;;4999886;28;1089;-68
2022/04/15 06:26:13;;;;;;;;;;;18.90;57.80;;;;;;5012781;28;1123;-67
2022/04/15 06:28:38;;;;;;;;;;;18.90;57.80;;;;;;5012827;28;1287;-68
2022/04/15 06:31:04;;;;;;;;;;;18.90;57.80;;;;;;5007720;28;1960;-68
2022/04/15 06:33:29;;;;;;;;;;;18.90;57.80;;;;;;5012093;28;1954;-68
2022/04/15 06:35:55;;;;;;;;;;;18.90;57.70;;;;;;5015123;28;1651;-68
2022/04/15 06:38:20;;;;;;;;;;;18.90;57.70;;;;;;5016860;28;1322;-67
2022/04/15 06:40:46;;;;;;;;;;;18.90;57.70;;;;;;5016956;28;1264;-67
2022/04/15 06:43:11;;;;;;;;;;;18.90;57.70;;;;;;5016912;28;987;-66
2022/04/15 06:45:37;;;;;;;;;;;18.90;57.70;;;;;;5013685;28;1271;-66
2022/04/15 06:48:02;;;;;;;;;;;18.90;57.70;;;;;;5016752;28;1277;-66
2022/04/15 06:50:28;;;;;;;;;;;18.90;57.60;;;;;;4999290;28;1393;-68
2022/04/15 06:52:53;;;;;;;;;;;18.90;57.60;;;;;;5010436;28;1961;-68
2022/04/15 06:55:19;;;;;;;;;;;18.90;57.60;;;;;;5013342;28;1206;-67
2022/04/15 06:57:44;;;;;;;;;;;18.90;57.60;;;;;;5015383;28;1312;-66
2022/04/15 07:00:11;;;;;;;;;;;19.00;57.60;;;;;;4997367;28;1358;-66
2022/04/15 07:02:37;;;;;;;;;;;19.00;57.50;;;;;;5014089;28;1874;-66
2022/04/15 07:05:03;;;;;;;;;;;19.00;57.40;;;;;;5012115;28;1774;-66
2022/04/15 07:07:28;;;;;;;;;;;19.10;57.30;;;;;;5016099;28;1202;-66
2022/04/15 07:09:53;;;;;;;;;;;19.20;57.20;;;;;;5016422;28;1481;-65
2022/04/15 07:12:19;;;;;;;;;;;19.30;57.10;;;;;;5016227;28;1902;-65
2022/04/15 07:14:44;;;;;;;;;;;19.40;57.00;;;;;;5016087;28;1328;-66
2022/04/15 07:17:10;;;;;;;;;;;19.50;56.80;;;;;;5016316;28;1300;-66
2022/04/15 07:19:36;;;;;;;;;;;19.60;56.60;;;;;;5016189;28;1433;-66
2022/04/15 07:22:01;;;;;;;;;;;19.60;56.50;;;;;;5016263;28;1486;-66
2022/04/15 07:24:27;;;;;;;;;;;19.80;56.30;;;;;;5016198;28;1286;-66
2022/04/15 07:26:53;;;;;;;;;;;19.80;56.10;;;;;;5015794;28;1139;-65
2022/04/15 07:29:20;;;;;;;;;;;19.90;55.90;;;;;;5016186;28;1294;-65
2022/04/15 07:31:45;;;;;;;;;;;20.00;55.70;;;;;;5016059;28;1967;-66
2022/04/15 07:34:11;;;;;;;;;;;20.00;55.50;;;;;;5016002;28;1317;-66
2022/04/15 07:39:02;;;;;;;;;;;20.10;55.30;;;;;;5016220;28;1365;-65
2022/04/15 07:41:28;;;;;;;;;;;20.20;55.20;;;;;;5015892;28;1084;-63
2022/04/15 07:43:54;;;;;;;;;;;20.20;55.20;;;;;;5015692;28;1279;-67
2022/04/15 07:46:19;;;;;;;;;;;20.20;55.10;;;;;;5015153;28;1374;-67
2022/04/15 07:48:44;;;;;;;;;;;20.20;55.00;;;;;;5015696;28;1377;-67
2022/04/15 07:51:10;;;;;;;;;;;20.30;55.20;;;;;;5015800;28;1883;-67
2022/04/15 07:53:35;;;;;;;;;;;20.30;55.10;;;;;;5015657;28;1237;-67
2022/04/15 07:56:01;;;;;;;;;;;20.30;55.00;;;;;;5009203;28;1414;-66
2022/04/15 07:58:27;;;;;;;;;;;20.30;55.00;;;;;;5008823;28;1307;-67
2022/04/15 08:00:52;;;;;;;;;;;20.30;55.00;;;;;;5013761;28;1669;-66
2022/04/15 08:03:20;;;;;;;;;;;20.30;54.90;;;;;;5029519;28;1288;-67
2022/04/15 08:05:45;;;;;;;;;;;20.30;54.90;;;;;;5013123;28;1283;-67
2022/04/15 08:08:11;;;;;;;;;;;20.30;54.90;;;;;;4997506;28;1268;-67
2022/04/15 08:10:36;;;;;;;;;;;20.30;54.90;;;;;;5015320;28;1088;-67
2022/04/15 08:13:02;;;;;;;;;;;20.30;55.00;;;;;;5015014;28;1891;-67
2022/04/15 08:15:27;;;;;;;;;;;20.20;55.50;;;;;;5015114;28;1277;-67
2022/04/15 08:17:53;;;;;;;;;;;20.20;55.00;;;;;;4997403;28;1399;-66
2022/04/15 08:20:18;;;;;;;;;;;20.20;55.10;;;;;;5015257;28;1329;-66
2022/04/15 08:22:44;;;;;;;;;;;20.20;55.10;;;;;;4979637;28;1285;-66
2022/04/15 08:25:09;;;;;;;;;;;20.20;55.20;;;;;;5015132;28;1301;-67
2022/04/15 08:27:35;;;;;;;;;;;20.20;55.20;;;;;;4996976;28;1585;-67
2022/04/15 08:30:00;;;;;;;;;;;20.20;55.20;;;;;;5014850;28;1297;-66
2022/04/15 08:32:32;;;;;;;;;;;20.10;55.20;;;;;;5015103;28;1966;-67
2022/04/15 08:35:04;;;;;;;;;;;20.10;55.30;;;;;;5014953;28;1646;-67
2022/04/15 08:37:30;;;;;;;;;;;20.10;55.30;;;;;;5014492;28;1107;-67
2022/04/15 08:39:55;;;;;;;;;;;20.10;55.30;;;;;;5015012;28;1349;-67
2022/04/15 08:42:21;;;;;;;;;;;20.10;55.40;;;;;;5014876;28;1359;-66
2022/04/15 08:44:50;;;;;;;;;;;20.10;55.50;;;;;;4997260;28;1280;-67
2022/04/15 08:47:15;;;;;;;;;;;20.10;55.50;;;;;;5026589;28;1632;-66
2022/04/15 08:49:40;;;;;;;;;;;20.10;55.50;;;;;;5012926;28;1347;-65
2022/04/15 08:52:07;;;;;;;;;;;20.10;55.50;;;;;;5014446;28;1906;-67
2022/04/15 08:54:32;;;;;;;;;;;20.10;55.60;;;;;;4996689;28;1112;-67
2022/04/15 08:56:58;;;;;;;;;;;20.00;55.60;;;;;;5013754;28;1295;-66
2022/04/15 08:59:23;;;;;;;;;;;20.10;55.60;;;;;;4996232;28;1382;-66
2022/04/15 09:01:49;;;;;;;;;;;20.10;55.70;;;;;;5004821;28;1327;-66
2022/04/15 09:04:15;;;;;;;;;;;20.00;55.70;;;;;;5021815;28;1216;-66
2022/04/15 09:06:41;;;;;;;;;;;20.00;55.70;;;;;;5024618;28;1323;-68
2022/04/15 09:09:14;;;;;;;;;;;20.00;55.70;;;;;;5022685;28;1282;-66
2022/04/15 09:11:40;;;;;;;;;;;20.00;55.80;;;;;;5024722;28;1969;-67
2022/04/15 09:14:12;;;;;;;;;;;20.00;55.80;;;;;;5023431;28;1252;-66
2022/04/15 09:16:41;;;;;;;;;;;19.90;55.80;;;;;;5004468;28;1256;-65
2022/04/15 09:19:07;;;;;;;;;;;19.90;55.80;;;;;;5020454;28;1269;-66
2022/04/15 09:21:32;;;;;;;;;;;19.90;55.90;;;;;;5024591;28;1412;-66
2022/04/15 09:23:58;;;;;;;;;;;19.90;55.90;;;;;;5023037;28;1240;-67
2022/04/15 09:26:24;;;;;;;;;;;19.90;55.90;;;;;;5022093;28;1394;-67
2022/04/15 09:28:49;;;;;;;;;;;19.90;55.90;;;;;;5021830;28;1401;-67
2022/04/15 09:31:15;;;;;;;;;;;19.90;56.00;;;;;;5022783;28;1969;-64
2022/04/15 09:33:59;;;;;;;;;;;19.90;56.00;;;;;;5006396;28;1337;-67
2022/04/15 09:36:25;;;;;;;;;;;19.90;56.00;;;;;;5024702;28;1160;-66
2022/04/15 09:38:54;;;;;;;;;;;19.90;56.10;;;;;;5022286;28;1288;-66
2022/04/15 09:41:23;;;;;;;;;;;19.90;56.10;;;;;;5021991;28;1237;-66
2022/04/15 09:43:54;;;;;;;;;;;19.90;56.10;;;;;;5024619;28;1184;-66
2022/04/15 09:46:20;;;;;;;;;;;19.90;56.20;;;;;;5023995;28;1204;-66
2022/04/15 09:49:03;;;;;;;;;;;19.90;56.10;;;;;;5022572;28;1382;-67
2022/04/15 09:51:29;;;;;;;;;;;19.90;56.20;;;;;;5018655;28;1890;-68
2022/04/15 09:53:59;;;;;;;;;;;19.80;56.20;;;;;;5020147;28;1228;-67
2022/04/15 09:56:24;;;;;;;;;;;19.80;56.20;;;;;;5020676;28;1058;-67
2022/04/15 09:58:52;;;;;;;;;;;19.80;56.20;;;;;;5022722;28;1269;-67
2022/04/15 10:01:17;;;;;;;;;;;19.80;56.20;;;;;;5022252;28;1237;-65
2022/04/15 10:03:44;;;;;;;;;;;19.80;56.20;;;;;;5022237;28;1275;-66
2022/04/15 10:06:10;;;;;;;;;;;19.80;56.20;;;;;;5019349;28;2004;-67
2022/04/15 10:08:35;;;;;;;;;;;19.80;56.30;;;;;;5010091;28;1878;-68
2022/04/15 10:11:01;;;;;;;;;;;19.80;56.30;;;;;;5011640;28;1902;-68
2022/04/15 10:13:28;;;;;;;;;;;19.80;56.30;;;;;;5011886;28;1414;-67
2022/04/15 10:15:54;;;;;;;;;;;19.80;56.30;;;;;;5027833;28;1314;-68
2022/04/15 10:18:20;;;;;;;;;;;19.70;56.30;;;;;;4995368;28;1402;-68
2022/04/15 10:20:45;;;;;;;;;;;19.70;56.30;;;;;;5013279;28;1282;-67
2022/04/15 10:23:11;;;;;;;;;;;19.70;56.40;;;;;;5013209;28;1259;-67
2022/04/15 10:25:37;;;;;;;;;;;19.70;56.40;;;;;;5013877;28;1872;-67
2022/04/15 10:28:13;;;;;;;;;;;19.70;56.40;;;;;;5019568;28;1278;-66
2022/04/15 10:30:38;;;;;;;;;;;19.70;56.40;;;;;;5018665;28;2426;-67
2022/04/15 10:33:04;;;;;;;;;;;19.70;56.40;;;;;;5014832;28;1911;-67
2022/04/15 10:35:30;;;;;;;;;;;19.70;56.40;;;;;;5011363;28;1400;-67
2022/04/15 10:38:00;;;;;;;;;;;19.70;56.40;;;;;;4998367;28;1784;-68
2022/04/15 10:40:27;;;;;;;;;;;19.70;56.40;;;;;;5012029;28;1670;-67
2022/04/15 10:42:53;;;;;;;;;;;19.70;56.50;;;;;;5013178;28;1380;-68
2022/04/15 10:45:25;;;;;;;;;;;19.70;56.40;;;;;;4995613;28;1723;-68
2022/04/15 10:47:56;;;;;;;;;;;19.70;56.40;;;;;;5012941;28;1583;-68
2022/04/15 10:50:22;;;;;;;;;;;19.70;56.40;;;;;;5013161;28;1732;-67
2022/04/15 10:52:48;;;;;;;;;;;19.80;56.40;;;;;;5012980;28;1898;-67
2022/04/15 10:55:16;;;;;;;;;;;19.80;56.40;;;;;;5005286;28;1935;-68
2022/04/15 10:57:43;;;;;;;;;;;19.80;56.30;;;;;;5012462;28;1131;-68
2022/04/15 11:03:01;;;;;;;;;;;19.90;56.30;;;;;;4997592;28;2110;-68
2022/04/15 11:05:42;;;;;;;;;;;19.90;56.20;;;;;;5011939;28;1143;-68
2022/04/15 11:08:11;;;;;;;;;;;19.90;56.20;;;;;;5011186;28;1366;-68
2022/04/15 11:10:43;;;;;;;;;;;19.90;56.20;;;;;;4993216;28;1117;-68
2022/04/15 11:13:08;;;;;;;;;;;19.90;56.20;;;;;;5011448;28;1969;-68
2022/04/15 11:15:55;;;;;;;;;;;19.90;56.10;;;;;;4994561;28;1263;-68
2022/04/15 11:18:21;;;;;;;;;;;19.90;56.10;;;;;;5011867;28;1261;-68
2022/04/15 11:20:46;;;;;;;;;;;19.90;56.10;;;;;;5012827;28;1994;-69
2022/04/15 11:23:12;;;;;;;;;;;19.90;56.10;;;;;;5015927;28;1286;-68
2022/04/15 11:25:43;;;;;;;;;;;19.90;56.10;;;;;;5015578;28;1347;-67
2022/04/15 11:28:09;;;;;;;;;;;19.90;56.10;;;;;;5015923;28;1288;-67
2022/04/15 11:30:34;;;;;;;;;;;19.90;56.10;;;;;;5014625;28;1280;-67
2022/04/15 11:33:02;;;;;;;;;;;19.90;56.10;;;;;;5015404;28;1907;-67
2022/04/15 11:35:28;;;;;;;;;;;19.90;56.10;;;;;;4997785;28;1587;-68
2022/04/15 11:37:57;;;;;;;;;;;19.90;56.10;;;;;;5015364;28;1350;-69
2022/04/15 11:40:23;;;;;;;;;;;19.90;56.10;;;;;;5014180;28;1183;-68
2022/04/15 11:42:48;;;;;;;;;;;19.80;56.10;;;;;;4998059;28;1344;-68
2022/04/15 11:45:14;;;;;;;;;;;19.90;56.10;;;;;;5015612;28;1347;-68
2022/04/15 11:47:40;;;;;;;;;;;19.90;56.20;;;;;;5014869;28;1339;-68
2022/04/15 11:50:05;;;;;;;;;;;19.80;56.10;;;;;;5015550;28;1396;-68
2022/04/15 11:52:31;;;;;;;;;;;19.80;56.10;;;;;;5015272;28;1902;-69
2022/04/15 11:54:59;;;;;;;;;;;19.90;56.20;;;;;;5015309;28;1316;-68
2022/04/15 11:57:25;;;;;;;;;;;19.90;56.20;;;;;;5014922;28;1279;-68
2022/04/15 11:59:50;;;;;;;;;;;19.90;56.20;;;;;;4997730;28;1404;-68
2022/04/15 12:02:22;;;;;;;;;;;19.90;56.20;;;;;;4997584;28;1430;-68
2022/04/15 12:04:54;;;;;;;;;;;19.90;56.30;;;;;;5015255;28;1239;-68
2022/04/15 12:07:21;;;;;;;;;;;19.90;56.20;;;;;;5015072;28;1260;-68
2022/04/15 12:09:46;;;;;;;;;;;19.80;56.20;;;;;;5014978;28;1316;-68
2022/04/15 12:12:12;;;;;;;;;;;19.90;56.20;;;;;;5015262;28;1910;-68
2022/04/15 12:14:38;;;;;;;;;;;19.90;56.20;;;;;;5014840;28;1313;-68
2022/04/15 12:17:05;;;;;;;;;;;19.90;56.10;;;;;;5014745;28;1322;-68
2022/04/15 12:19:30;;;;;;;;;;;19.90;56.10;;;;;;4997281;28;1269;-68
2022/04/15 12:21:58;;;;;;;;;;;19.90;56.10;;;;;;4997304;28;1364;-68
2022/04/15 12:24:24;;;;;;;;;;;19.90;56.10;;;;;;4997253;28;1272;-68
2022/04/15 12:26:50;;;;;;;;;;;19.90;56.10;;;;;;5014367;28;1220;-68
2022/04/15 12:32:23;;;;;;;;;;;19.90;56.10;;;;;;5011306;28;3081;-68
2022/04/15 12:35:11;;;;;;;;;;;19.90;56.10;;;;;;5009295;28;1487;-68
2022/04/15 12:37:38;;;;;;;;;;;19.90;56.10;;;;;;5014212;28;1449;-68
2022/04/15 12:40:26;;;;;;;;;;;19.90;56.10;;;;;;5013260;28;1386;-68
2022/04/15 12:42:53;;;;;;;;;;;19.90;56.10;;;;;;5014597;28;1351;-68
2022/04/15 12:45:21;;;;;;;;;;;19.90;56.10;;;;;;5014731;28;1568;-68
2022/04/15 12:48:05;;;;;;;;;;;19.90;56.10;;;;;;5013123;28;1433;-68
2022/04/15 12:50:33;;;;;;;;;;;19.90;56.10;;;;;;4996969;28;1618;-68
2022/04/15 12:52:59;;;;;;;;;;;19.90;56.20;;;;;;4997125;28;1958;-68
2022/04/15 12:55:29;;;;;;;;;;;19.90;56.20;;;;;;5014292;28;1654;-69
2022/04/15 12:57:54;;;;;;;;;;;19.90;56.30;;;;;;5012298;28;1961;-68
2022/04/15 13:00:20;;;;;;;;;;;19.90;56.30;;;;;;5013817;28;1260;-68
2022/04/15 13:02:45;;;;;;;;;;;19.90;56.30;;;;;;5012494;28;1111;-68
2022/04/15 13:05:11;;;;;;;;;;;19.90;56.30;;;;;;5014138;28;1286;-68
2022/04/15 13:07:36;;;;;;;;;;;19.90;56.30;;;;;;5013806;28;1336;-67
2022/04/15 13:10:02;;;;;;;;;;;19.90;56.30;;;;;;5013798;28;1346;-67
2022/04/15 13:12:28;;;;;;;;;;;19.80;56.30;;;;;;5013813;28;1946;-69
2022/04/15 13:14:53;;;;;;;;;;;19.80;56.30;;;;;;5011271;28;1640;-68
2022/04/15 13:17:19;;;;;;;;;;;19.80;56.30;;;;;;5004208;28;1668;-68
2022/04/15 13:19:45;;;;;;;;;;;19.80;56.40;;;;;;5031548;28;1328;-68
2022/04/15 13:22:11;;;;;;;;;;;19.80;56.40;;;;;;4997439;28;1390;-68
2022/04/15 13:24:37;;;;;;;;;;;19.80;56.40;;;;;;5023449;28;1285;-68
2022/04/15 13:27:02;;;;;;;;;;;19.80;56.40;;;;;;5022232;28;1174;-68
2022/04/15 13:29:28;;;;;;;;;;;19.80;56.50;;;;;;5022519;28;1572;-68
2022/04/15 13:31:53;;;;;;;;;;;19.80;56.50;;;;;;5021403;28;1959;-68
2022/04/15 13:34:19;;;;;;;;;;;19.70;56.50;;;;;;5019032;28;1329;-68
2022/04/15 13:36:45;;;;;;;;;;;19.70;56.50;;;;;;5021771;28;1196;-69
2022/04/15 13:39:10;;;;;;;;;;;19.70;56.60;;;;;;5023030;28;1209;-67
2022/04/15 13:41:36;;;;;;;;;;;19.70;56.60;;;;;;5020699;28;1263;-68
2022/04/15 13:44:02;;;;;;;;;;;19.70;56.60;;;;;;5023755;28;1200;-70
2022/04/15 13:46:27;;;;;;;;;;;19.70;56.70;;;;;;5021179;28;1227;-68
2022/04/15 13:48:54;;;;;;;;;;;19.70;56.70;;;;;;5019151;28;1362;-68
2022/04/15 13:51:22;;;;;;;;;;;19.60;56.70;;;;;;5022445;28;1975;-67
2022/04/15 13:56:34;;;;;;;;;;;19.60;56.80;;;;;;5021085;28;1133;-67
2022/04/15 13:59:00;;;;;;;;;;;19.60;56.80;;;;;;5038417;22;2103;-71
2022/04/15 14:01:28;;;;;;;;;;;19.60;56.90;;;;;;5007409;28;1177;-70
2022/04/15 14:03:54;;;;;;;;;;;19.60;56.90;;;;;;5012196;28;1379;-71
2022/04/15 14:06:19;;;;;;;;;;;19.60;56.90;;;;;;4998821;28;1575;-70
2022/04/15 14:08:45;;;;;;;;;;;19.60;56.90;;;;;;5022841;28;1402;-71
2022/04/15 14:11:12;;;;;;;;;;;19.60;57.00;;;;;;5024314;28;1906;-70
2022/04/15 14:13:38;;;;;;;;;;;19.60;56.90;;;;;;5023443;28;1102;-70
2022/04/15 14:16:04;;;;;;;;;;;19.60;57.00;;;;;;5005424;28;1196;-69
2022/04/15 14:18:29;;;;;;;;;;;19.60;57.00;;;;;;5020551;28;1400;-70
2022/04/15 14:20:54;;;;;;;;;;;19.60;57.00;;;;;;5003735;28;1300;-71
2022/04/15 14:23:20;;;;;;;;;;;19.60;56.90;;;;;;5021550;28;1244;-70
2022/04/15 14:25:46;;;;;;;;;;;19.60;56.90;;;;;;5015826;28;1393;-69
2022/04/15 14:28:12;;;;;;;;;;;19.60;57.00;;;;;;5017633;28;1669;-69
2022/04/15 14:30:37;;;;;;;;;;;19.60;57.00;;;;;;4998937;28;1775;-69
2022/04/15 14:33:02;;;;;;;;;;;19.60;57.00;;;;;;5010289;28;2076;-68
2022/04/15 14:35:28;;;;;;;;;;;19.60;57.00;;;;;;5010670;28;1309;-68
2022/04/15 14:37:53;;;;;;;;;;;19.60;57.00;;;;;;5011940;28;1276;-68